createdAt,value
2023-01-15T00:17:13.354Z,851
2023-01-15T00:57:13.358Z,838
2023-01-15T01:17:13.348Z,847
2023-01-15T01:37:13.372Z,866
2023-01-15T01:57:13.392Z,858
2023-01-15T02:17:13.165Z,848
2023-01-15T02:37:13.294Z,841
2023-01-15T02:57:13.388Z,828
2023-01-15T03:17:13.429Z,811
2023-01-15T03:37:13.431Z,797
2023-01-15T03:57:13.445Z,785
2023-01-15T04:17:12.948Z,785
2023-01-15T04:37:13.479Z,772
2023-01-15T04:57:13.455Z,764
2023-01-15T05:17:12.987Z,758
2023-01-15T05:37:13.531Z,752
2023-01-15T05:57:12.984Z,741
2023-01-15T06:17:13.504Z,747
2023-01-15T06:37:13.543Z,728
2023-01-15T06:57:13.534Z,746
2023-01-15T07:17:13.559Z,728
2023-01-15T07:37:13.592Z,720
2023-01-15T07:57:13.047Z,720
2023-01-15T08:17:13.099Z,720
2023-01-15T08:37:13.640Z,717
2023-01-15T08:57:13.598Z,714
2023-01-15T09:17:13.106Z,699
2023-01-15T09:37:13.612Z,706
2023-01-15T09:57:13.623Z,691
2023-01-15T10:17:13.613Z,702
2023-01-15T10:37:13.652Z,688
2023-01-15T10:57:13.662Z,680
2023-01-15T11:17:13.685Z,674
2023-01-15T11:37:13.649Z,677
2023-01-15T11:57:13.661Z,664
2023-01-15T12:17:13.697Z,665
2023-01-15T12:37:13.689Z,666
2023-01-15T12:57:13.485Z,639
2023-01-15T13:17:13.198Z,647
2023-01-15T13:57:13.713Z,655
2023-01-15T14:17:13.720Z,652
2023-01-15T14:37:13.746Z,643
2023-01-15T14:57:13.561Z,648
2023-01-15T15:17:13.761Z,637
2023-01-15T15:37:13.814Z,634
2023-01-15T15:57:13.807Z,632
2023-01-15T16:37:13.796Z,626
2023-01-15T16:57:13.893Z,630
2023-01-15T17:17:13.802Z,626
2023-01-15T17:37:13.812Z,612
2023-01-15T17:57:13.621Z,624
2023-01-15T18:17:13.946Z,613
2023-01-15T18:37:13.829Z,606
2023-01-15T18:57:13.871Z,599
2023-01-15T19:17:13.875Z,606
2023-01-15T20:17:13.898Z,590
2023-01-15T20:37:13.409Z,586
2023-01-15T20:57:13.980Z,596
2023-01-15T21:17:13.962Z,587
2023-01-15T21:37:13.723Z,584
2023-01-15T21:57:13.978Z,585
2023-01-15T22:17:14.008Z,575
2023-01-15T22:37:14.016Z,588
2023-01-15T22:57:14.015Z,578
2023-01-15T23:37:13.511Z,586
2023-01-15T23:57:13.802Z,574
